sensor_id;sensor_type;location;lat;lon;timestamp;P1;durP1;ratioP1;P2;durP2;ratioP2
15192;SDS011;7697;51.630;7.484;2023-06-22T00:04:30;3.70;;;3.38;;
15192;SDS011;7697;51.630;7.484;2023-06-22T00:09:32;3.63;;;3.30;;
15192;SDS011;7697;51.630;7.484;2023-06-22T00:14:36;3.22;;;2.97;;
15192;SDS011;7697;51.630;7.484;2023-06-22T00:19:38;3.58;;;3.28;;
15192;SDS011;7697;51.630;7.484;2023-06-22T00:24:40;4.05;;;3.65;;
15192;SDS011;7697;51.630;7.484;2023-06-22T00:29:44;3.80;;;3.50;;
15192;SDS011;7697;51.630;7.484;2023-06-22T00:34:45;4.22;;;3.83;;
15192;SDS011;7697;51.630;7.484;2023-06-22T00:39:47;5.03;;;3.85;;
15192;SDS011;7697;51.630;7.484;2023-06-22T00:44:50;4.20;;;3.80;;
15192;SDS011;7697;51.630;7.484;2023-06-22T00:49:52;4.47;;;3.97;;
15192;SDS011;7697;51.630;7.484;2023-06-22T00:54:55;4.32;;;3.70;;
15192;SDS011;7697;51.630;7.484;2023-06-22T00:59:59;4.78;;;4.30;;
15192;SDS011;7697;51.630;7.484;2023-06-22T01:05:00;4.90;;;4.40;;
15192;SDS011;7697;51.630;7.484;2023-06-22T01:10:03;4.28;;;3.70;;
15192;SDS011;7697;51.630;7.484;2023-06-22T01:15:11;5.38;;;4.38;;
15192;SDS011;7697;51.630;7.484;2023-06-22T01:20:20;4.30;;;3.90;;
15192;SDS011;7697;51.630;7.484;2023-06-22T01:25:26;4.68;;;3.78;;
15192;SDS011;7697;51.630;7.484;2023-06-22T01:30:34;4.28;;;3.88;;
15192;SDS011;7697;51.630;7.484;2023-06-22T01:35:39;4.40;;;4.00;;
15192;SDS011;7697;51.630;7.484;2023-06-22T01:40:42;5.03;;;3.78;;
15192;SDS011;7697;51.630;7.484;2023-06-22T01:45:45;4.60;;;4.15;;
15192;SDS011;7697;51.630;7.484;2023-06-22T01:50:47;4.20;;;3.85;;
15192;SDS011;7697;51.630;7.484;2023-06-22T01:55:49;4.65;;;4.22;;
15192;SDS011;7697;51.630;7.484;2023-06-22T02:00:53;5.35;;;4.72;;
15192;SDS011;7697;51.630;7.484;2023-06-22T02:06:01;5.30;;;4.40;;
15192;SDS011;7697;51.630;7.484;2023-06-22T02:11:06;5.13;;;4.63;;
15192;SDS011;7697;51.630;7.484;2023-06-22T02:16:12;5.78;;;5.18;;
15192;SDS011;7697;51.630;7.484;2023-06-22T02:21:16;5.18;;;4.10;;
15192;SDS011;7697;51.630;7.484;2023-06-22T02:26:18;5.00;;;4.07;;
15192;SDS011;7697;51.630;7.484;2023-06-22T02:31:21;4.38;;;3.70;;
15192;SDS011;7697;51.630;7.484;2023-06-22T02:36:24;5.60;;;4.72;;
15192;SDS011;7697;51.630;7.484;2023-06-22T02:41:27;6.05;;;4.35;;
15192;SDS011;7697;51.630;7.484;2023-06-22T02:46:30;4.45;;;4.05;;
15192;SDS011;7697;51.630;7.484;2023-06-22T02:51:33;4.95;;;4.55;;
15192;SDS011;7697;51.630;7.484;2023-06-22T02:56:35;5.03;;;4.53;;
15192;SDS011;7697;51.630;7.484;2023-06-22T03:01:39;5.60;;;5.10;;
15192;SDS011;7697;51.630;7.484;2023-06-22T03:06:41;5.45;;;4.95;;
15192;SDS011;7697;51.630;7.484;2023-06-22T03:11:42;6.25;;;5.65;;
15192;SDS011;7697;51.630;7.484;2023-06-22T03:16:46;5.68;;;5.18;;
15192;SDS011;7697;51.630;7.484;2023-06-22T03:21:47;6.00;;;5.43;;
15192;SDS011;7697;51.630;7.484;2023-06-22T03:26:49;5.75;;;5.10;;
15192;SDS011;7697;51.630;7.484;2023-06-22T03:31:52;5.15;;;4.65;;
15192;SDS011;7697;51.630;7.484;2023-06-22T03:36:56;5.43;;;4.93;;
15192;SDS011;7697;51.630;7.484;2023-06-22T03:41:58;5.07;;;4.57;;
15192;SDS011;7697;51.630;7.484;2023-06-22T03:47:02;5.18;;;4.68;;
15192;SDS011;7697;51.630;7.484;2023-06-22T03:52:04;5.13;;;4.57;;
15192;SDS011;7697;51.630;7.484;2023-06-22T03:57:06;5.15;;;4.75;;
15192;SDS011;7697;51.630;7.484;2023-06-22T04:02:09;5.32;;;4.85;;
15192;SDS011;7697;51.630;7.484;2023-06-22T04:07:11;4.63;;;4.22;;
15192;SDS011;7697;51.630;7.484;2023-06-22T04:12:13;5.20;;;4.70;;
15192;SDS011;7697;51.630;7.484;2023-06-22T04:17:16;5.72;;;5.22;;
15192;SDS011;7697;51.630;7.484;2023-06-22T04:22:19;6.03;;;5.50;;
15192;SDS011;7697;51.630;7.484;2023-06-22T04:27:21;5.50;;;5.05;;
15192;SDS011;7697;51.630;7.484;2023-06-22T04:32:24;8.13;;;6.25;;
15192;SDS011;7697;51.630;7.484;2023-06-22T04:37:26;5.85;;;5.28;;
15192;SDS011;7697;51.630;7.484;2023-06-22T04:42:28;7.53;;;6.60;;
15192;SDS011;7697;51.630;7.484;2023-06-22T04:47:31;7.10;;;6.40;;
15192;SDS011;7697;51.630;7.484;2023-06-22T04:52:33;7.07;;;6.30;;
15192;SDS011;7697;51.630;7.484;2023-06-22T04:57:35;6.45;;;5.85;;
15192;SDS011;7697;51.630;7.484;2023-06-22T05:02:40;6.63;;;6.03;;
15192;SDS011;7697;51.630;7.484;2023-06-22T05:07:43;6.40;;;5.80;;
15192;SDS011;7697;51.630;7.484;2023-06-22T05:12:45;7.05;;;6.45;;
15192;SDS011;7697;51.630;7.484;2023-06-22T05:17:49;8.38;;;7.57;;
15192;SDS011;7697;51.630;7.484;2023-06-22T05:22:51;8.00;;;7.30;;
15192;SDS011;7697;51.630;7.484;2023-06-22T05:27:53;8.32;;;7.45;;
15192;SDS011;7697;51.630;7.484;2023-06-22T05:32:56;10.10;;;8.73;;
15192;SDS011;7697;51.630;7.484;2023-06-22T05:37:58;12.90;;;8.95;;
15192;SDS011;7697;51.630;7.484;2023-06-22T05:43:00;10.02;;;9.13;;
15192;SDS011;7697;51.630;7.484;2023-06-22T05:48:03;9.90;;;8.15;;
15192;SDS011;7697;51.630;7.484;2023-06-22T05:53:06;9.80;;;8.80;;
15192;SDS011;7697;51.630;7.484;2023-06-22T05:58:08;8.30;;;7.50;;
15192;SDS011;7697;51.630;7.484;2023-06-22T06:03:11;9.23;;;8.38;;
15192;SDS011;7697;51.630;7.484;2023-06-22T06:08:13;7.07;;;6.47;;
15192;SDS011;7697;51.630;7.484;2023-06-22T06:13:14;9.90;;;9.00;;
15192;SDS011;7697;51.630;7.484;2023-06-22T06:18:18;9.00;;;8.10;;
15192;SDS011;7697;51.630;7.484;2023-06-22T06:23:19;10.07;;;9.02;;
15192;SDS011;7697;51.630;7.484;2023-06-22T06:28:21;9.25;;;8.15;;
15192;SDS011;7697;51.630;7.484;2023-06-22T06:33:24;8.75;;;7.85;;
15192;SDS011;7697;51.630;7.484;2023-06-22T06:38:26;10.55;;;9.55;;
15192;SDS011;7697;51.630;7.484;2023-06-22T06:43:28;9.10;;;8.20;;
15192;SDS011;7697;51.630;7.484;2023-06-22T06:48:31;8.82;;;7.88;;
15192;SDS011;7697;51.630;7.484;2023-06-22T06:53:33;8.18;;;7.30;;
15192;SDS011;7697;51.630;7.484;2023-06-22T06:58:35;11.10;;;10.00;;
15192;SDS011;7697;51.630;7.484;2023-06-22T07:03:38;10.27;;;9.30;;
15192;SDS011;7697;51.630;7.484;2023-06-22T07:08:40;9.18;;;7.95;;
15192;SDS011;7697;51.630;7.484;2023-06-22T07:13:42;8.35;;;7.55;;
15192;SDS011;7697;51.630;7.484;2023-06-22T07:18:46;9.00;;;8.10;;
15192;SDS011;7697;51.630;7.484;2023-06-22T07:23:48;9.85;;;8.95;;
15192;SDS011;7697;51.630;7.484;2023-06-22T07:28:49;9.80;;;8.85;;
15192;SDS011;7697;51.630;7.484;2023-06-22T07:33:53;9.48;;;8.57;;
15192;SDS011;7697;51.630;7.484;2023-06-22T07:38:54;7.70;;;7.00;;
15192;SDS011;7697;51.630;7.484;2023-06-22T07:43:56;8.98;;;8.18;;
15192;SDS011;7697;51.630;7.484;2023-06-22T07:49:00;8.80;;;7.88;;
15192;SDS011;7697;51.630;7.484;2023-06-22T07:54:02;10.55;;;9.55;;
15192;SDS011;7697;51.630;7.484;2023-06-22T07:59:04;9.50;;;8.65;;
15192;SDS011;7697;51.630;7.484;2023-06-22T08:04:07;8.93;;;8.13;;
15192;SDS011;7697;51.630;7.484;2023-06-22T08:09:08;11.10;;;10.10;;
15192;SDS011;7697;51.630;7.484;2023-06-22T08:14:10;11.30;;;10.20;;
15192;SDS011;7697;51.630;7.484;2023-06-22T08:19:14;11.52;;;10.43;;
15192;SDS011;7697;51.630;7.484;2023-06-22T08:24:16;13.05;;;11.85;;
15192;SDS011;7697;51.630;7.484;2023-06-22T08:29:18;12.30;;;11.10;;
15192;SDS011;7697;51.630;7.484;2023-06-22T08:34:21;12.10;;;10.98;;
15192;SDS011;7697;51.630;7.484;2023-06-22T08:39:25;11.88;;;10.82;;
15192;SDS011;7697;51.630;7.484;2023-06-22T08:44:27;12.40;;;11.10;;
15192;SDS011;7697;51.630;7.484;2023-06-22T08:49:30;13.45;;;12.10;;
15192;SDS011;7697;51.630;7.484;2023-06-22T08:54:32;11.57;;;10.40;;
15192;SDS011;7697;51.630;7.484;2023-06-22T08:59:34;10.30;;;9.20;;
15192;SDS011;7697;51.630;7.484;2023-06-22T09:04:38;11.32;;;10.20;;
15192;SDS011;7697;51.630;7.484;2023-06-22T09:09:40;13.30;;;12.00;;
15192;SDS011;7697;51.630;7.484;2023-06-22T09:14:42;11.65;;;10.55;;
15192;SDS011;7697;51.630;7.484;2023-06-22T09:19:45;10.40;;;9.48;;
15192;SDS011;7697;51.630;7.484;2023-06-22T09:24:47;11.88;;;10.77;;
15192;SDS011;7697;51.630;7.484;2023-06-22T09:29:49;10.65;;;9.70;;
15192;SDS011;7697;51.630;7.484;2023-06-22T09:34:53;12.23;;;10.98;;
15192;SDS011;7697;51.630;7.484;2023-06-22T09:39:54;12.52;;;11.23;;
15192;SDS011;7697;51.630;7.484;2023-06-22T09:44:56;8.73;;;7.93;;
15192;SDS011;7697;51.630;7.484;2023-06-22T09:50:00;10.88;;;9.93;;
15192;SDS011;7697;51.630;7.484;2023-06-22T09:55:02;8.93;;;8.13;;
15192;SDS011;7697;51.630;7.484;2023-06-22T10:00:05;8.77;;;7.97;;
15192;SDS011;7697;51.630;7.484;2023-06-22T10:05:13;8.90;;;8.00;;
15192;SDS011;7697;51.630;7.484;2023-06-22T10:10:15;9.30;;;8.40;;
15192;SDS011;7697;51.630;7.484;2023-06-22T10:15:16;8.63;;;7.82;;
15192;SDS011;7697;51.630;7.484;2023-06-22T10:20:19;8.15;;;7.35;;
15192;SDS011;7697;51.630;7.484;2023-06-22T10:25:22;9.13;;;8.32;;
15192;SDS011;7697;51.630;7.484;2023-06-22T10:30:24;8.63;;;7.93;;
15192;SDS011;7697;51.630;7.484;2023-06-22T10:35:27;10.40;;;9.40;;
15192;SDS011;7697;51.630;7.484;2023-06-22T10:40:29;11.75;;;10.65;;
15192;SDS011;7697;51.630;7.484;2023-06-22T10:45:31;12.18;;;11.00;;
15192;SDS011;7697;51.630;7.484;2023-06-22T10:50:34;8.93;;;8.15;;
15192;SDS011;7697;51.630;7.484;2023-06-22T10:55:36;10.20;;;9.32;;
15192;SDS011;7697;51.630;7.484;2023-06-22T11:00:38;11.32;;;10.23;;
15192;SDS011;7697;51.630;7.484;2023-06-22T11:05:42;10.45;;;9.55;;
15192;SDS011;7697;51.630;7.484;2023-06-22T11:10:43;10.13;;;9.23;;
15192;SDS011;7697;51.630;7.484;2023-06-22T11:15:45;10.50;;;9.18;;
15192;SDS011;7697;51.630;7.484;2023-06-22T11:20:48;9.82;;;8.82;;
15192;SDS011;7697;51.630;7.484;2023-06-22T11:25:50;7.93;;;7.05;;
15192;SDS011;7697;51.630;7.484;2023-06-22T11:30:52;9.40;;;8.55;;
15192;SDS011;7697;51.630;7.484;2023-06-22T11:35:57;9.45;;;8.65;;
15192;SDS011;7697;51.630;7.484;2023-06-22T11:41:00;8.82;;;8.02;;
15192;SDS011;7697;51.630;7.484;2023-06-22T11:46:02;8.05;;;7.30;;
15192;SDS011;7697;51.630;7.484;2023-06-22T11:51:06;9.55;;;8.65;;
15192;SDS011;7697;51.630;7.484;2023-06-22T11:56:08;8.85;;;8.00;;
15192;SDS011;7697;51.630;7.484;2023-06-22T12:01:10;12.32;;;11.13;;
15192;SDS011;7697;51.630;7.484;2023-06-22T12:06:16;5.40;;;4.97;;
15192;SDS011;7697;51.630;7.484;2023-06-22T12:11:18;6.57;;;5.82;;
15192;SDS011;7697;51.630;7.484;2023-06-22T12:16:20;7.13;;;5.90;;
15192;SDS011;7697;51.630;7.484;2023-06-22T12:21:26;8.27;;;6.13;;
15192;SDS011;7697;51.630;7.484;2023-06-22T12:26:29;6.53;;;5.65;;
15192;SDS011;7697;51.630;7.484;2023-06-22T12:31:31;6.68;;;5.97;;
15192;SDS011;7697;51.630;7.484;2023-06-22T12:42:03;7.72;;;6.32;;
15192;SDS011;7697;51.630;7.484;2023-06-22T12:47:09;7.65;;;7.00;;
15192;SDS011;7697;51.630;7.484;2023-06-22T12:52:14;7.68;;;6.85;;
15192;SDS011;7697;51.630;7.484;2023-06-22T12:57:16;7.55;;;6.85;;
15192;SDS011;7697;51.630;7.484;2023-06-22T13:02:19;9.18;;;7.68;;
15192;SDS011;7697;51.630;7.484;2023-06-22T13:07:22;8.65;;;7.85;;
15192;SDS011;7697;51.630;7.484;2023-06-22T13:12:24;15.07;;;8.43;;
15192;SDS011;7697;51.630;7.484;2023-06-22T13:17:26;7.95;;;7.25;;
15192;SDS011;7697;51.630;7.484;2023-06-22T13:22:29;7.60;;;6.63;;
15192;SDS011;7697;51.630;7.484;2023-06-22T13:27:32;8.35;;;7.55;;
15192;SDS011;7697;51.630;7.484;2023-06-22T13:32:34;7.65;;;7.05;;
15192;SDS011;7697;51.630;7.484;2023-06-22T13:37:37;8.15;;;7.45;;
15192;SDS011;7697;51.630;7.484;2023-06-22T13:42:39;8.13;;;7.43;;
15192;SDS011;7697;51.630;7.484;2023-06-22T13:47:40;8.13;;;7.43;;
15192;SDS011;7697;51.630;7.484;2023-06-22T13:52:44;7.45;;;6.75;;
15192;SDS011;7697;51.630;7.484;2023-06-22T13:57:45;6.38;;;5.85;;
15192;SDS011;7697;51.630;7.484;2023-06-22T14:02:47;7.18;;;6.55;;
15192;SDS011;7697;51.630;7.484;2023-06-22T14:07:51;8.23;;;7.53;;
15192;SDS011;7697;51.630;7.484;2023-06-22T14:12:53;8.68;;;7.93;;
15192;SDS011;7697;51.630;7.484;2023-06-22T14:17:55;8.80;;;8.00;;
15192;SDS011;7697;51.630;7.484;2023-06-22T14:22:58;9.10;;;8.20;;
15192;SDS011;7697;51.630;7.484;2023-06-22T14:27:59;9.55;;;8.65;;
15192;SDS011;7697;51.630;7.484;2023-06-22T14:33:02;9.18;;;8.38;;
15192;SDS011;7697;51.630;7.484;2023-06-22T14:38:05;9.57;;;8.75;;
15192;SDS011;7697;51.630;7.484;2023-06-22T14:43:07;9.88;;;8.52;;
15192;SDS011;7697;51.630;7.484;2023-06-22T14:48:08;8.77;;;7.93;;
15192;SDS011;7697;51.630;7.484;2023-06-22T14:53:12;9.27;;;8.48;;
15192;SDS011;7697;51.630;7.484;2023-06-22T14:58:14;10.75;;;9.75;;
15192;SDS011;7697;51.630;7.484;2023-06-22T15:03:16;10.52;;;9.57;;
15192;SDS011;7697;51.630;7.484;2023-06-22T15:08:25;9.68;;;8.80;;
15192;SDS011;7697;51.630;7.484;2023-06-22T15:13:27;11.30;;;10.30;;
15192;SDS011;7697;51.630;7.484;2023-06-22T15:18:33;19.63;;;17.58;;
15192;SDS011;7697;51.630;7.484;2023-06-22T15:23:38;19.05;;;15.93;;
15192;SDS011;7697;51.630;7.484;2023-06-22T15:28:39;10.82;;;9.82;;
15192;SDS011;7697;51.630;7.484;2023-06-22T15:33:43;10.45;;;9.55;;
15192;SDS011;7697;51.630;7.484;2023-06-22T15:38:46;10.70;;;9.80;;
15192;SDS011;7697;51.630;7.484;2023-06-22T15:43:48;10.93;;;9.93;;
15192;SDS011;7697;51.630;7.484;2023-06-22T15:48:50;10.82;;;9.82;;
15192;SDS011;7697;51.630;7.484;2023-06-22T15:53:53;9.68;;;8.77;;
15192;SDS011;7697;51.630;7.484;2023-06-22T15:58:55;10.55;;;9.55;;
15192;SDS011;7697;51.630;7.484;2023-06-22T16:03:56;9.73;;;8.85;;
15192;SDS011;7697;51.630;7.484;2023-06-22T16:09:00;8.15;;;7.45;;
15192;SDS011;7697;51.630;7.484;2023-06-22T16:14:03;9.80;;;8.90;;
15192;SDS011;7697;51.630;7.484;2023-06-22T16:19:05;10.13;;;9.13;;
15192;SDS011;7697;51.630;7.484;2023-06-22T16:24:08;10.38;;;9.20;;
15192;SDS011;7697;51.630;7.484;2023-06-22T16:29:10;10.07;;;9.07;;
15192;SDS011;7697;51.630;7.484;2023-06-22T16:34:12;11.75;;;10.23;;
15192;SDS011;7697;51.630;7.484;2023-06-22T16:39:16;10.98;;;9.88;;
15192;SDS011;7697;51.630;7.484;2023-06-22T16:44:17;12.80;;;11.27;;
15192;SDS011;7697;51.630;7.484;2023-06-22T16:49:19;11.13;;;10.02;;
15192;SDS011;7697;51.630;7.484;2023-06-22T16:54:22;11.32;;;10.23;;
15192;SDS011;7697;51.630;7.484;2023-06-22T16:59:25;13.73;;;10.52;;
15192;SDS011;7697;51.630;7.484;2023-06-22T17:04:27;11.63;;;10.50;;
15192;SDS011;7697;51.630;7.484;2023-06-22T17:09:33;11.02;;;9.93;;
15192;SDS011;7697;51.630;7.484;2023-06-22T17:14:38;11.88;;;10.40;;
15192;SDS011;7697;51.630;7.484;2023-06-22T17:19:44;13.02;;;11.80;;
15192;SDS011;7697;51.630;7.484;2023-06-22T17:24:49;12.02;;;10.93;;
15192;SDS011;7697;51.630;7.484;2023-06-22T17:29:55;12.40;;;11.07;;
15192;SDS011;7697;51.630;7.484;2023-06-22T17:35:05;11.52;;;10.43;;
15192;SDS011;7697;51.630;7.484;2023-06-22T17:40:13;12.07;;;10.88;;
15192;SDS011;7697;51.630;7.484;2023-06-22T17:45:15;12.82;;;11.52;;
15192;SDS011;7697;51.630;7.484;2023-06-22T17:50:21;12.13;;;11.00;;
15192;SDS011;7697;51.630;7.484;2023-06-22T17:55:26;14.15;;;12.82;;
15192;SDS011;7697;51.630;7.484;2023-06-22T18:00:28;14.38;;;13.07;;
15192;SDS011;7697;51.630;7.484;2023-06-22T18:05:30;16.23;;;14.70;;
15192;SDS011;7697;51.630;7.484;2023-06-22T18:10:35;18.15;;;16.23;;
15192;SDS011;7697;51.630;7.484;2023-06-22T18:15:39;16.13;;;14.60;;
15192;SDS011;7697;51.630;7.484;2023-06-22T18:20:41;14.65;;;13.38;;
15192;SDS011;7697;51.630;7.484;2023-06-22T18:25:45;16.65;;;15.05;;
15192;SDS011;7697;51.630;7.484;2023-06-22T18:30:48;16.00;;;14.57;;
15192;SDS011;7697;51.630;7.484;2023-06-22T18:35:50;14.27;;;12.98;;
15192;SDS011;7697;51.630;7.484;2023-06-22T18:40:55;16.70;;;15.00;;
15192;SDS011;7697;51.630;7.484;2023-06-22T18:46:04;15.93;;;14.43;;
15192;SDS011;7697;51.630;7.484;2023-06-22T18:51:42;15.45;;;14.05;;
15192;SDS011;7697;51.630;7.484;2023-06-22T18:56:55;17.67;;;15.98;;
15192;SDS011;7697;51.630;7.484;2023-06-22T19:01:59;17.77;;;16.08;;
15192;SDS011;7697;51.630;7.484;2023-06-22T19:07:01;16.50;;;14.90;;
15192;SDS011;7697;51.630;7.484;2023-06-22T19:12:17;17.20;;;15.68;;
15192;SDS011;7697;51.630;7.484;2023-06-22T19:17:21;18.05;;;16.35;;
15192;SDS011;7697;51.630;7.484;2023-06-22T19:22:23;17.73;;;16.13;;
15192;SDS011;7697;51.630;7.484;2023-06-22T19:27:46;16.63;;;15.00;;
15192;SDS011;7697;51.630;7.484;2023-06-22T19:32:51;16.50;;;14.95;;
15192;SDS011;7697;51.630;7.484;2023-06-22T19:37:52;16.98;;;15.38;;
15192;SDS011;7697;51.630;7.484;2023-06-22T19:42:56;18.10;;;16.42;;
15192;SDS011;7697;51.630;7.484;2023-06-22T19:47:57;19.77;;;17.67;;
15192;SDS011;7697;51.630;7.484;2023-06-22T19:53:00;19.35;;;17.55;;
15192;SDS011;7697;51.630;7.484;2023-06-22T19:58:03;19.63;;;17.73;;
15192;SDS011;7697;51.630;7.484;2023-06-22T20:03:07;18.63;;;16.92;;
15192;SDS011;7697;51.630;7.484;2023-06-22T20:08:11;15.90;;;14.25;;
15192;SDS011;7697;51.630;7.484;2023-06-22T20:13:15;15.63;;;14.20;;
15192;SDS011;7697;51.630;7.484;2023-06-22T20:18:21;17.33;;;15.63;;
15192;SDS011;7697;51.630;7.484;2023-06-22T20:23:23;17.67;;;15.93;;
15192;SDS011;7697;51.630;7.484;2023-06-22T20:28:26;16.02;;;14.60;;
15192;SDS011;7697;51.630;7.484;2023-06-22T20:33:29;15.45;;;14.05;;
15192;SDS011;7697;51.630;7.484;2023-06-22T20:38:31;16.05;;;14.45;;
15192;SDS011;7697;51.630;7.484;2023-06-22T20:43:34;15.63;;;13.98;;
15192;SDS011;7697;51.630;7.484;2023-06-22T20:48:36;15.95;;;14.35;;
15192;SDS011;7697;51.630;7.484;2023-06-22T20:53:38;16.27;;;14.77;;
15192;SDS011;7697;51.630;7.484;2023-06-22T20:58:41;15.27;;;13.88;;
15192;SDS011;7697;51.630;7.484;2023-06-22T21:03:43;14.32;;;13.13;;
15192;SDS011;7697;51.630;7.484;2023-06-22T21:08:45;15.30;;;13.70;;
15192;SDS011;7697;51.630;7.484;2023-06-22T21:13:48;12.57;;;11.38;;
15192;SDS011;7697;51.630;7.484;2023-06-22T21:18:50;12.82;;;11.52;;
15192;SDS011;7697;51.630;7.484;2023-06-22T21:23:52;3.53;;;3.22;;
15192;SDS011;7697;51.630;7.484;2023-06-22T21:28:55;4.35;;;2.80;;
15192;SDS011;7697;51.630;7.484;2023-06-22T21:33:57;7.90;;;3.30;;
15192;SDS011;7697;51.630;7.484;2023-06-22T21:38:59;4.38;;;3.30;;
15192;SDS011;7697;51.630;7.484;2023-06-22T21:44:02;3.90;;;3.60;;
15192;SDS011;7697;51.630;7.484;2023-06-22T21:49:04;3.85;;;3.55;;
15192;SDS011;7697;51.630;7.484;2023-06-22T21:54:06;4.18;;;2.70;;
15192;SDS011;7697;51.630;7.484;2023-06-22T21:59:09;3.97;;;2.40;;
15192;SDS011;7697;51.630;7.484;2023-06-22T22:04:11;2.60;;;2.40;;
15192;SDS011;7697;51.630;7.484;2023-06-22T22:09:13;2.50;;;2.30;;
15192;SDS011;7697;51.630;7.484;2023-06-22T22:14:16;3.03;;;2.72;;
15192;SDS011;7697;51.630;7.484;2023-06-22T22:19:18;2.53;;;2.33;;
15192;SDS011;7697;51.630;7.484;2023-06-22T22:24:20;3.80;;;3.38;;
15192;SDS011;7697;51.630;7.484;2023-06-22T22:29:23;4.20;;;3.80;;
15192;SDS011;7697;51.630;7.484;2023-06-22T22:34:27;4.88;;;4.25;;
15192;SDS011;7697;51.630;7.484;2023-06-22T22:39:29;4.15;;;3.75;;
15192;SDS011;7697;51.630;7.484;2023-06-22T22:44:33;5.53;;;4.65;;
15192;SDS011;7697;51.630;7.484;2023-06-22T22:49:35;5.72;;;4.55;;
15192;SDS011;7697;51.630;7.484;2023-06-22T22:54:37;4.68;;;4.25;;
15192;SDS011;7697;51.630;7.484;2023-06-22T22:59:44;5.20;;;4.70;;
15192;SDS011;7697;51.630;7.484;2023-06-22T23:04:53;4.85;;;4.43;;
15192;SDS011;7697;51.630;7.484;2023-06-22T23:09:55;5.38;;;4.88;;
15192;SDS011;7697;51.630;7.484;2023-06-22T23:14:58;5.10;;;4.68;;
15192;SDS011;7697;51.630;7.484;2023-06-22T23:20:00;5.95;;;4.78;;
15192;SDS011;7697;51.630;7.484;2023-06-22T23:25:04;5.25;;;4.75;;
15192;SDS011;7697;51.630;7.484;2023-06-22T23:30:10;5.88;;;5.35;;
15192;SDS011;7697;51.630;7.484;2023-06-22T23:35:12;5.45;;;4.95;;
15192;SDS011;7697;51.630;7.484;2023-06-22T23:40:14;5.50;;;5.00;;
15192;SDS011;7697;51.630;7.484;2023-06-22T23:45:19;6.05;;;5.30;;
15192;SDS011;7697;51.630;7.484;2023-06-22T23:50:21;6.50;;;5.93;;
15192;SDS011;7697;51.630;7.484;2023-06-22T23:55:23;6.32;;;5.32;;
